Linden, California
Current Conditions -  °F | °C
As of 11:55 AM on Friday 19 Dec 2014 (Local Time) from KSCK Reporting Station
Light Rain Light Rain  
Wind Chill: 52°   Ceiling: 4000
Heat Index: 52°   Visibility: 10mi
Dew Point: 48°   Wind: 10mph
Humidity: 86%   Direction: 100°E
Pressure: 30.16"   Gusts: NA
Location:  38.02°N, 121.09°W
Report Text: KSCK 191955Z 10009KT 10SM -RA OVC040 11/09 A3016 RMK AO2 SLP212 P0002 T01110089
Loading
Personal Weather Stations






























Interactive Weather Map New forecast layout! Learn more

10-Day Weather Forecast

Advertisements
Track Severe Weather on mobile